Time;durP1;ratioP1;P1;durP2;ratioP2;P2;SDS_P1;SDS_P2;PMS_P1;PMS_P2;Temp;Humidity;BMP_temperature;BMP_pressure;BME280_temperature;BME280_humidity;BME280_pressure;Samples;Min_cycle;Max_cycle;Signal;HPM_P1;HPM_P2
2022/09/17 00:00:37;;;;;;;10.13;5.63;;;;;;;20.22;100.00;100359.94;2086850;28;20435;-63
2022/09/17 00:01:38;;;;;;;11.47;5.30;;;;;;;20.20;100.00;100368.91;2087403;28;20213;-63
2022/09/17 00:02:38;;;;;;;9.00;5.20;;;;;;;20.20;100.00;100373.75;2086838;28;20560;-63
2022/09/17 00:03:39;;;;;;;8.43;4.87;;;;;;;20.17;100.00;100374.75;2088838;28;20217;-63
2022/09/17 00:04:39;;;;;;;10.07;5.27;;;;;;;20.15;100.00;100371.66;2089108;28;20287;-63
2022/09/17 00:05:40;;;;;;;12.33;5.20;;;;;;;20.11;100.00;100357.09;2089132;28;20582;-63
2022/09/17 00:06:40;;;;;;;10.07;4.77;;;;;;;20.16;100.00;100364.78;2088665;28;20574;-62
2022/09/17 00:07:41;;;;;;;9.60;4.83;;;;;;;20.13;100.00;100368.59;2089283;28;20697;-62
2022/09/17 00:08:41;;;;;;;10.50;4.53;;;;;;;20.12;100.00;100367.06;2088248;28;20196;-62
2022/09/17 00:09:42;;;;;;;11.20;5.17;;;;;;;19.52;100.00;100274.66;2088887;28;20653;-63
2022/09/17 00:10:43;;;;;;;9.20;4.80;;;;;;;20.14;100.00;100358.88;2088558;28;20199;-63
2022/09/17 00:11:44;;;;;;;8.40;4.20;;;;;;;20.15;100.00;100357.59;2089482;28;20433;-63
2022/09/17 00:12:45;;;;;;;8.60;4.30;;;;;;;20.10;100.00;100347.88;2087708;28;20944;-63
2022/09/17 00:13:46;;;;;;;11.80;4.23;;;;;;;20.19;100.00;100350.47;2088945;28;20572;-63
2022/09/17 00:14:47;;;;;;;7.13;4.20;;;;;;;20.19;100.00;100349.69;2088546;28;20444;-63
2022/09/17 00:15:47;;;;;;;9.00;3.93;;;;;;;20.11;100.00;100328.97;2088390;28;20432;-63
2022/09/17 00:16:48;;;;;;;8.37;4.10;;;;;;;20.16;100.00;100359.91;2089443;28;20711;-63
2022/09/17 00:17:54;;;;;;;14.53;4.40;;;;;;;19.11;100.00;100206.69;2088416;28;20202;-63
2022/09/17 00:18:55;;;;;;;9.03;4.40;;;;;;;19.98;100.00;100340.63;2088797;28;20713;-63
2022/09/17 00:19:56;;;;;;;7.57;4.50;;;;;;;20.04;100.00;100354.69;2088632;28;20467;-63
2022/09/17 00:20:56;;;;;;;8.17;4.40;;;;;;;20.03;100.00;100345.50;2088446;28;20479;-63
2022/09/17 00:21:57;;;;;;;8.40;4.70;;;;;;;20.04;100.00;100343.44;2088889;28;20198;-63
2022/09/17 00:22:57;;;;;;;8.13;4.60;;;;;;;20.02;100.00;100338.34;2088811;28;20200;-63
2022/09/17 00:24:00;;;;;;;10.57;4.67;;;;;;;19.93;100.00;100335.75;2088464;28;20187;-63
2022/09/17 00:25:02;;;;;;;10.73;4.80;;;;;;;19.92;100.00;100333.44;2088525;28;20188;-63
2022/09/17 00:26:05;;;;;;;8.53;4.67;;;;;;;19.92;100.00;100339.06;2089383;28;20426;-63
2022/09/17 00:27:05;;;;;;;8.77;4.30;;;;;;;19.93;100.00;100340.59;2087199;28;20462;-63
2022/09/17 00:28:06;;;;;;;7.87;3.80;;;;;;;19.83;100.00;100322.38;2087368;28;20473;-63
2022/09/17 00:29:08;;;;;;;10.43;4.23;;;;;;;19.33;100.00;100259.47;2088667;28;20195;-63
2022/09/17 00:30:09;;;;;;;10.83;4.90;;;;;;;19.79;100.00;100331.06;2088706;28;20485;-63
2022/09/17 00:31:10;;;;;;;9.13;4.63;;;;;;;19.81;100.00;100345.38;2088493;28;20439;-63
2022/09/17 00:32:10;;;;;;;8.87;4.50;;;;;;;19.84;100.00;100338.75;2089088;28;20480;-63
2022/09/17 00:33:13;;;;;;;8.90;4.40;;;;;;;19.43;100.00;100266.41;2088558;28;20180;-63
2022/09/17 00:34:13;;;;;;;11.27;4.57;;;;;;;19.83;100.00;100323.16;2088004;28;20238;-63
2022/09/17 00:35:14;;;;;;;8.93;4.67;;;;;;;19.82;100.00;100324.44;2088743;28;20430;-63
2022/09/17 00:36:14;;;;;;;10.00;4.77;;;;;;;19.83;100.00;100328.78;2088629;28;20250;-63
2022/09/17 00:37:15;;;;;;;8.80;4.20;;;;;;;19.84;100.00;100323.91;2088602;28;20267;-62
2022/09/17 00:38:15;;;;;;;8.10;3.77;;;;;;;19.83;100.00;100319.56;2088869;28;20671;-62
2022/09/17 00:39:16;;;;;;;7.63;3.73;;;;;;;19.77;100.00;100319.56;2088848;28;20219;-63
2022/09/17 00:40:18;;;;;;;6.77;3.70;;;;;;;19.82;100.00;100318.03;2087961;28;20218;-63
2022/09/17 00:41:19;;;;;;;6.93;3.93;;;;;;;19.81;100.00;100322.88;2087768;28;20620;-63
2022/09/17 00:42:21;;;;;;;8.83;4.40;;;;;;;19.59;100.00;100296.69;2087805;28;20430;-63
2022/09/17 00:43:58;;;;;;;8.93;4.23;;;;;;;19.75;100.00;100319.25;2089212;28;20473;-63
2022/09/17 00:44:59;;;;;;;9.20;4.17;;;;;;;19.70;100.00;100325.63;2079172;28;21021;-63
2022/09/17 00:46:01;;;;;;;12.70;4.63;;;;;;;19.63;100.00;100328.91;2071194;28;20436;-63
2022/09/17 00:47:02;;;;;;;9.23;4.60;;;;;;;19.62;100.00;100327.38;2072809;28;20436;-63
2022/09/17 00:48:05;;;;;;;11.50;5.00;;;;;;;19.64;100.00;100324.03;2088520;28;20510;-63
2022/09/17 00:49:12;;;;;;;10.67;4.53;;;;;;;19.56;100.00;100308.94;2089270;28;20234;-63
2022/09/17 00:50:27;;;;;;;7.93;4.47;;;;;;;19.66;100.00;100318.72;2088531;28;20826;-63
2022/09/17 00:51:37;;;;;;;8.33;4.13;;;;;;;19.31;100.00;100274.03;2087030;28;21696;-63
2022/09/17 00:52:42;;;;;;;7.73;4.17;;;;;;;19.62;100.00;100318.94;2088346;28;20939;-63
2022/09/17 00:53:43;;;;;;;6.60;3.77;;;;;;;19.61;100.00;100314.59;2088839;28;20425;-63
2022/09/17 00:54:48;;;;;;;7.93;4.00;;;;;;;19.02;100.00;100229.34;2088142;28;20470;-63
2022/09/17 00:56:00;;;;;;;11.10;4.50;;;;;;;19.61;100.00;100320.22;2088756;28;20223;-63
2022/09/17 00:57:01;;;;;;;7.27;3.80;;;;;;;19.61;100.00;100322.25;2088199;28;20457;-63
2022/09/17 00:58:05;;;;;;;9.07;3.80;;;;;;;19.49;100.00;100303.78;2088799;28;20448;-63
2022/09/17 00:59:06;;;;;;;9.27;3.93;;;;;;;19.60;100.00;100335.53;2088688;28;20448;-63
2022/09/17 01:00:08;;;;;;;10.57;3.93;;;;;;;19.49;100.00;100315.03;2088305;28;20532;-63
2022/09/17 01:01:08;;;;;;;9.33;3.97;;;;;;;19.56;100.00;100325.78;2087849;28;20453;-63
2022/09/17 01:02:09;;;;;;;10.77;4.97;;;;;;;19.49;100.00;100318.59;2088695;28;20480;-63
2022/09/17 01:03:10;;;;;;;11.03;4.73;;;;;;;19.52;100.00;100334.47;2088813;28;20242;-63
2022/09/17 01:04:18;;;;;;;14.67;5.23;;;;;;;19.50;100.00;100322.94;2088474;28;20476;-63
2022/09/17 01:05:37;;;;;;;10.37;4.57;;;;;;;19.51;100.00;100323.72;2087920;28;20176;-63
2022/09/17 01:06:53;;;;;;;11.30;4.60;;;;;;;19.49;100.00;100323.47;2087096;28;21056;-63
2022/09/17 01:08:06;;;;;;;5.97;3.77;;;;;;;19.50;100.00;100330.59;2087151;28;20661;-63
2022/09/17 01:09:41;;;;;;;8.53;4.30;;;;;;;19.48;100.00;100330.31;2087973;28;20509;-63
2022/09/17 01:10:59;;;;;;;8.63;4.13;;;;;;;19.48;100.00;100321.88;2088426;28;20828;-63
2022/09/17 01:12:27;;;;;;;8.17;3.83;;;;;;;19.41;100.00;100317.53;2087627;28;20508;-63
2022/09/17 01:13:33;;;;;;;6.83;3.53;;;;;;;19.39;100.00;100317.22;2088188;28;20431;-63
2022/09/17 01:14:48;;;;;;;8.07;3.63;;;;;;;19.39;100.00;100322.09;2087357;28;20433;-63
2022/09/17 01:16:11;;;;;;;6.97;3.90;;;;;;;19.40;100.00;100323.63;2088017;28;20484;-63
2022/09/17 01:17:30;;;;;;;8.93;3.43;;;;;;;19.38;100.00;100324.13;2087690;28;20496;-63
2022/09/17 01:18:44;;;;;;;9.03;3.83;;;;;;;19.39;100.00;100327.72;2088513;28;20535;-63
2022/09/17 01:20:15;;;;;;;8.57;3.67;;;;;;;18.92;100.00;100261.69;2088264;28;20447;-63
2022/09/17 01:21:33;;;;;;;8.50;4.03;;;;;;;19.41;100.00;100336.41;2088724;28;20411;-63
2022/09/17 01:23:05;;;;;;;8.80;4.13;;;;;;;19.42;100.00;100341.53;2088308;28;20465;-63
2022/09/17 01:24:35;;;;;;;7.90;3.97;;;;;;;19.43;100.00;100339.47;2088805;28;20498;-63
2022/09/17 01:26:03;;;;;;;10.20;3.50;;;;;;;19.41;100.00;100331.56;2088008;28;20429;-63
2022/09/17 01:27:38;;;;;;;7.33;3.53;;;;;;;19.34;100.00;100337.63;2088436;28;20510;-63
2022/09/17 01:29:05;;;;;;;11.20;3.90;;;;;;;19.24;100.00;100329.91;2087677;28;20516;-63
2022/09/17 01:30:34;;;;;;;9.13;3.43;;;;;;;19.26;100.00;100333.75;2087807;28;20452;-63
2022/09/17 01:31:51;;;;;;;8.33;3.70;;;;;;;19.29;100.00;100329.94;2088604;28;20459;-63
2022/09/17 01:33:04;;;;;;;7.37;3.13;;;;;;;19.28;100.00;100328.41;2088014;28;20931;-63
2022/09/17 01:34:27;;;;;;;5.73;3.00;;;;;;;19.37;100.00;100333.84;2087398;28;20420;-63
2022/09/17 01:35:31;;;;;;;9.00;3.57;;;;;;;19.38;100.00;100324.13;2088312;28;20424;-63
2022/09/17 01:36:53;;;;;;;8.27;3.23;;;;;;;19.38;100.00;100324.13;2088007;28;20429;-63
2022/09/17 01:37:59;;;;;;;9.63;3.43;;;;;;;19.41;100.00;100325.16;2087489;28;20452;-63
2022/09/17 01:39:18;;;;;;;8.03;3.20;;;;;;;19.43;100.00;100323.41;2088279;28;20909;-63
2022/09/17 01:40:34;;;;;;;6.37;3.00;;;;;;;19.48;100.00;100314.25;2087871;28;20529;-63
2022/09/17 01:42:02;;;;;;;9.73;3.90;;;;;;;19.41;100.00;100303.47;2088272;28;20457;-63
2022/09/17 01:43:23;;;;;;;10.83;3.20;;;;;;;19.40;100.00;100292.72;2087351;28;20476;-63
2022/09/17 01:44:26;;;;;;;8.40;3.60;;;;;;;19.39;100.00;100300.38;2088910;28;20516;-63
2022/09/17 01:45:38;;;;;;;13.67;3.53;;;;;;;19.38;100.00;100301.66;2088307;28;20430;-63
2022/09/17 01:46:53;;;;;;;13.37;3.10;;;;;;;19.38;100.00;100286.81;2088167;28;20965;-63
2022/09/17 01:47:59;;;;;;;10.00;3.47;;;;;;;19.39;100.00;100286.31;2087479;28;20508;-63
2022/09/17 01:49:03;;;;;;;8.20;3.10;;;;;;;19.39;100.00;100280.72;2088087;28;20519;-63
2022/09/17 01:50:10;;;;;;;6.77;3.00;;;;;;;19.40;100.00;100278.69;2088073;28;20436;-63
2022/09/17 01:51:16;;;;;;;7.33;3.13;;;;;;;19.43;100.00;100274.84;2088647;28;20480;-63
2022/09/17 01:52:18;;;;;;;12.07;3.53;;;;;;;19.42;100.00;100271.28;2088066;28;20454;-63
2022/09/17 01:53:23;;;;;;;8.20;3.13;;;;;;;19.45;100.00;100270.28;2087845;28;20997;-63
2022/09/17 01:54:48;;;;;;;7.33;3.20;;;;;;;19.45;100.00;100273.06;2087921;28;21084;-63
2022/09/17 01:55:52;;;;;;;8.70;2.73;;;;;;;19.48;100.00;100271.31;2088729;28;20421;-63
2022/09/17 01:57:03;;;;;;;12.47;3.40;;;;;;;19.38;100.00;100256.69;2087001;28;20448;-63
2022/09/17 01:58:16;;;;;;;8.23;3.60;;;;;;;19.49;100.00;100253.19;2087800;28;20496;-63
2022/09/17 01:59:32;;;;;;;10.40;3.40;;;;;;;19.45;100.00;100256.22;2087760;28;20422;-63
2022/09/17 02:00:34;;;;;;;9.93;2.93;;;;;;;19.42;100.00;100243.19;2087591;28;20969;-63
2022/09/17 02:01:38;;;;;;;9.70;3.47;;;;;;;19.40;100.00;100244.97;2088776;28;20801;-63
2022/09/17 02:02:44;;;;;;;7.47;3.37;;;;;;;19.38;100.00;100242.66;2088248;28;20564;-63
2022/09/17 02:03:55;;;;;;;9.47;3.30;;;;;;;19.26;100.00;100218.56;2087292;28;20473;-63
2022/09/17 02:05:13;;;;;;;9.87;3.30;;;;;;;19.37;100.00;100238.31;2087508;28;20453;-63
2022/09/17 02:06:21;;;;;;;6.83;3.20;;;;;;;19.38;100.00;100233.44;2088566;28;20413;-63
2022/09/17 02:07:24;;;;;;;7.50;2.93;;;;;;;19.37;100.00;100237.53;2087673;28;20500;-63
2022/09/17 02:08:33;;;;;;;9.20;3.67;;;;;;;19.37;100.00;100241.13;2087854;28;20455;-63
2022/09/17 02:09:45;;;;;;;14.40;3.93;;;;;;;19.39;100.00;100240.63;2088294;28;20434;-63
2022/09/17 02:10:56;;;;;;;13.70;3.63;;;;;;;19.40;100.00;100240.09;2088110;28;20430;-63
2022/09/17 02:12:02;;;;;;;10.63;3.10;;;;;;;19.37;100.00;100224.25;2088609;28;20422;-63
2022/09/17 02:13:29;;;;;;;8.47;3.20;;;;;;;19.37;100.00;100226.28;2088444;28;20926;-63
2022/09/17 02:14:43;;;;;;;10.07;3.00;;;;;;;19.28;100.00;100213.22;2087445;28;20429;-63
2022/09/17 02:16:01;;;;;;;5.83;3.20;;;;;;;19.40;100.00;100225.28;2087467;28;20521;-63
2022/09/17 02:17:18;;;;;;;10.83;3.53;;;;;;;19.40;100.00;100233.72;2087664;28;20454;-63
2022/09/17 02:19:00;;;;;;;11.00;3.30;;;;;;;19.41;100.00;100226.81;2087415;28;20449;-63
2022/09/17 02:20:02;;;;;;;9.90;2.90;;;;;;;19.42;100.00;100217.91;2084638;28;20520;-63
2022/09/17 02:21:11;;;;;;;11.13;3.30;;;;;;;19.41;100.00;100216.38;2087424;28;20473;-63
2022/09/17 02:22:37;;;;;;;7.77;3.30;;;;;;;19.41;100.00;100215.59;2087611;28;20446;-63
2022/09/17 02:23:46;;;;;;;11.97;3.33;;;;;;;19.24;100.00;100197.88;2088175;28;20795;-63
2022/09/17 02:25:11;;;;;;;6.27;2.83;;;;;;;19.32;100.00;100210.16;2087486;28;20800;-63
2022/09/17 02:26:17;;;;;;;8.40;3.00;;;;;;;18.75;100.00;100123.25;2087175;28;20453;-63
2022/09/17 02:27:25;;;;;;;5.67;2.40;;;;;;;18.75;100.00;100120.44;2087552;28;20419;-63
2022/09/17 02:28:32;;;;;;;6.90;3.00;;;;;;;19.29;100.00;100203.50;2087745;28;20516;-63
2022/09/17 02:29:36;;;;;;;7.27;2.97;;;;;;;19.29;100.00;100206.31;2087607;28;20568;-63
2022/09/17 02:30:37;;;;;;;9.23;3.27;;;;;;;19.26;100.00;100200.94;2086679;28;20422;-63
2022/09/17 02:31:39;;;;;;;7.70;2.70;;;;;;;19.24;100.00;100201.44;2087785;28;20430;-63
2022/09/17 02:32:41;;;;;;;6.40;3.10;;;;;;;19.26;100.00;100198.91;2087827;28;20574;-63
2022/09/17 02:33:46;;;;;;;8.10;2.97;;;;;;;19.26;100.00;100204.53;2087926;28;20508;-63
2022/09/17 02:34:46;;;;;;;7.93;2.90;;;;;;;19.28;100.00;100204.78;2087767;28;20500;-63
2022/09/17 02:35:47;;;;;;;9.17;3.10;;;;;;;19.23;100.00;100205.50;2087776;28;20507;-63
2022/09/17 02:36:47;;;;;;;9.83;3.07;;;;;;;19.29;100.00;100209.13;2087392;28;20188;-63
2022/09/17 02:37:49;;;;;;;7.60;3.10;;;;;;;19.28;100.00;100201.97;2086720;28;20622;-63
2022/09/17 02:38:57;;;;;;;7.27;3.60;;;;;;;19.28;100.00;100195.56;2087591;28;20184;-63
2022/09/17 02:39:58;;;;;;;9.87;3.57;;;;;;;19.28;100.00;100199.16;2087481;28;20464;-63
2022/09/17 02:41:21;;;;;;;7.10;3.00;;;;;;;19.26;100.00;100193.28;2086894;28;20484;-63
2022/09/17 02:42:34;;;;;;;8.10;3.00;;;;;;;19.28;100.00;100189.97;2087633;28;20199;-63
2022/09/17 02:43:45;;;;;;;7.23;2.80;;;;;;;19.28;100.00;100179.50;2087820;28;21007;-63
2022/09/17 02:45:00;;;;;;;5.90;2.83;;;;;;;19.24;100.00;100176.16;2086084;28;20884;-63
2022/09/17 02:46:28;;;;;;;10.00;3.50;;;;;;;19.22;100.00;100175.91;2086992;28;20442;-63
2022/09/17 02:48:06;;;;;;;8.23;2.90;;;;;;;19.18;100.00;100166.91;2086575;28;20445;-63
2022/09/17 02:49:42;;;;;;;6.40;2.90;;;;;;;19.03;100.00;100162.72;2087773;28;20464;-63
2022/09/17 02:50:58;;;;;;;8.00;2.87;;;;;;;19.04;100.00;100158.66;2086667;28;20439;-63
2022/09/17 02:52:30;;;;;;;4.57;2.57;;;;;;;19.02;100.00;100150.72;2087746;28;20915;-63
2022/09/17 02:53:43;;;;;;;7.47;2.83;;;;;;;19.04;100.00;100145.34;2087512;28;20817;-63
2022/09/17 02:55:14;;;;;;;5.90;2.80;;;;;;;18.97;100.00;100142.25;2086949;28;20794;-63
2022/09/17 02:56:45;;;;;;;5.13;2.60;;;;;;;18.98;100.00;100143.81;2095106;28;20442;-63
2022/09/17 02:57:59;;;;;;;8.60;3.30;;;;;;;18.66;100.00;100080.53;2087345;28;20951;-63
2022/09/17 02:59:23;;;;;;;4.87;2.80;;;;;;;18.16;100.00;100003.69;2087714;28;20839;-63
2022/09/17 03:00:25;;;;;;;8.17;2.37;;;;;;;19.02;100.00;100133.09;2087915;28;20931;-63
2022/09/17 03:01:35;;;;;;;7.07;2.30;;;;;;;18.91;100.00;100114.16;2087735;28;20974;-63
2022/09/17 03:02:50;;;;;;;6.20;2.70;;;;;;;19.02;100.00;100127.47;2087565;28;20461;-63
2022/09/17 03:03:55;;;;;;;4.77;2.70;;;;;;;18.99;100.00;100131.31;2088381;28;20415;-63
2022/09/17 03:04:56;;;;;;;5.07;2.60;;;;;;;19.05;100.00;100140.53;2087262;28;20968;-63
2022/09/17 03:05:58;;;;;;;7.33;2.73;;;;;;;19.07;100.00;100135.94;2087476;28;20834;-63
2022/09/17 03:07:04;;;;;;;6.33;2.77;;;;;;;18.85;100.00;100104.94;2087233;28;20543;-63
2022/09/17 03:08:08;;;;;;;5.90;2.67;;;;;;;19.04;100.00;100133.38;2087213;28;20511;-63
2022/09/17 03:09:09;;;;;;;11.20;3.00;;;;;;;18.23;100.00;100026.41;2087801;28;20440;-63
2022/09/17 03:10:09;;;;;;;7.83;3.30;;;;;;;19.03;100.00;100143.81;2087263;28;20446;-63
2022/09/17 03:11:11;;;;;;;7.77;3.10;;;;;;;19.04;100.00;100147.41;2086746;28;20192;-63
2022/09/17 03:12:12;;;;;;;6.37;2.73;;;;;;;19.04;100.00;100144.59;2087104;28;20194;-63
2022/09/17 03:13:14;;;;;;;7.70;2.70;;;;;;;19.06;100.00;100145.63;2087562;28;20569;-63
2022/09/17 03:14:14;;;;;;;6.07;2.50;;;;;;;19.01;100.00;100137.94;2086895;28;20454;-63
2022/09/17 03:15:15;;;;;;;6.73;2.77;;;;;;;18.85;100.00;100135.03;2087496;28;20465;-63
2022/09/17 03:16:15;;;;;;;6.90;2.80;;;;;;;18.65;100.00;100116.28;2087204;28;20685;-63
2022/09/17 03:17:16;;;;;;;5.70;2.80;;;;;;;18.87;100.00;100150.09;2086309;28;20215;-63
2022/09/17 03:18:16;;;;;;;6.13;2.77;;;;;;;18.90;100.00;100151.16;2087396;28;20217;-63
2022/09/17 03:19:17;;;;;;;5.50;2.83;;;;;;;18.88;100.00;100137.59;2087316;28;20676;-63
2022/09/17 03:20:17;;;;;;;5.60;3.10;;;;;;;18.85;100.00;100126.59;2087050;28;20174;-63
2022/09/17 03:21:18;;;;;;;5.13;2.97;;;;;;;18.76;100.00;100118.38;2086891;28;20191;-63
2022/09/17 03:22:18;;;;;;;6.27;2.80;;;;;;;18.66;100.00;100112.19;2087353;28;20680;-63
2022/09/17 03:23:19;;;;;;;6.60;2.97;;;;;;;18.65;100.00;100119.09;2088189;28;20729;-63
2022/09/17 03:24:19;;;;;;;5.23;2.80;;;;;;;18.68;100.00;100129.28;2087593;28;20199;-63
2022/09/17 03:25:20;;;;;;;5.33;2.87;;;;;;;18.66;100.00;100131.84;2086585;28;20692;-63
2022/09/17 03:26:20;;;;;;;4.97;2.57;;;;;;;18.64;100.00;100123.16;2087229;28;20254;-63
2022/09/17 03:27:21;;;;;;;8.07;2.70;;;;;;;18.61;100.00;100120.56;2086767;28;20215;-64
2022/09/17 03:28:21;;;;;;;7.83;3.00;;;;;;;18.63;100.00;100127.22;2087002;28;20236;-63
2022/09/17 03:29:22;;;;;;;7.57;3.30;;;;;;;18.64;100.00;100123.16;2087504;28;20664;-63
2022/09/17 03:30:22;;;;;;;17.97;3.20;;;;;;;18.60;100.00;100139.44;2087105;28;20202;-63
2022/09/17 03:31:23;;;;;;;8.87;3.87;;;;;;;18.59;100.00;100137.13;2087961;28;20628;-63
2022/09/17 03:32:23;;;;;;;6.67;3.13;;;;;;;18.59;100.00;100142.75;2086308;28;20204;-63
2022/09/17 03:33:24;;;;;;;10.33;3.37;;;;;;;18.59;100.00;100135.13;2087337;28;20244;-63
2022/09/17 03:34:24;;;;;;;10.83;3.53;;;;;;;18.61;100.00;100135.38;2087255;28;20205;-63
2022/09/17 03:35:25;;;;;;;8.43;2.80;;;;;;;18.61;100.00;100138.19;2087303;28;20519;-63
2022/09/17 03:36:25;;;;;;;6.53;2.87;;;;;;;18.60;100.00;100133.06;2087007;28;20206;-63
2022/09/17 03:37:26;;;;;;;7.13;2.97;;;;;;;18.59;100.00;100126.69;2085759;28;20610;-63
2022/09/17 03:38:26;;;;;;;11.27;3.33;;;;;;;18.57;100.00;100125.66;2087145;28;20180;-63
2022/09/17 03:39:28;;;;;;;9.13;3.03;;;;;;;18.07;100.00;100062.72;2087750;28;20675;-63
2022/09/17 03:40:28;;;;;;;7.40;2.63;;;;;;;18.58;100.00;100130.75;2085843;28;20635;-64
2022/09/17 03:41:29;;;;;;;4.60;2.70;;;;;;;18.59;100.00;100131.53;2086105;28;20446;-63
2022/09/17 03:42:29;;;;;;;5.20;2.80;;;;;;;18.60;100.00;100135.88;2087638;28;20265;-63
2022/09/17 03:43:30;;;;;;;8.67;2.97;;;;;;;18.59;100.00;100143.53;2087508;28;20196;-63
2022/09/17 03:44:30;;;;;;;7.00;2.80;;;;;;;18.56;100.00;100135.31;2087296;28;20756;-63
2022/09/17 03:45:31;;;;;;;5.93;3.30;;;;;;;18.58;100.00;100147.59;2086818;28;20181;-63
2022/09/17 03:46:31;;;;;;;7.37;2.70;;;;;;;18.60;100.00;100145.06;2086856;28;20753;-63
2022/09/17 03:47:32;;;;;;;6.73;2.70;;;;;;;18.62;100.00;100148.13;2087023;28;20181;-63
2022/09/17 03:48:35;;;;;;;9.33;3.40;;;;;;;18.64;100.00;100133.59;2087508;28;20279;-63
2022/09/17 03:49:36;;;;;;;8.90;3.40;;;;;;;18.67;100.00;100141.03;2086667;28;20196;-63
2022/09/17 03:50:36;;;;;;;4.83;3.07;;;;;;;18.61;100.00;100143.78;2086834;28;20431;-63
2022/09/17 03:51:37;;;;;;;6.20;2.83;;;;;;;18.08;100.00;100067.84;2086802;28;20196;-63
2022/09/17 03:52:37;;;;;;;7.60;3.53;;;;;;;18.57;100.00;100137.63;2086589;28;20219;-63
2022/09/17 03:53:37;;;;;;;9.13;3.30;;;;;;;18.16;100.00;100076.59;2087072;28;20188;-63
2022/09/17 03:54:38;;;;;;;6.00;2.90;;;;;;;18.49;100.00;100133.75;2086549;28;20184;-63
2022/09/17 03:55:39;;;;;;;8.90;3.50;;;;;;;18.49;100.00;100125.34;2088013;28;20187;-63
2022/09/17 03:56:39;;;;;;;8.07;3.53;;;;;;;18.54;100.00;100132.25;2086136;28;20297;-63
2022/09/17 03:57:40;;;;;;;6.03;3.17;;;;;;;18.56;100.00;100119.25;2086876;28;20235;-63
2022/09/17 03:58:40;;;;;;;9.03;2.90;;;;;;;18.56;100.00;100124.88;2086940;28;20462;-63
2022/09/17 03:59:41;;;;;;;9.27;3.30;;;;;;;18.56;100.00;100130.50;2086645;28;20292;-63
2022/09/17 04:00:41;;;;;;;7.27;2.90;;;;;;;18.57;100.00;100122.84;2086327;28;20239;-63
2022/09/17 04:01:42;;;;;;;8.90;3.03;;;;;;;18.60;100.00;100119.03;2087366;28;20383;-63
2022/09/17 04:02:42;;;;;;;5.43;3.00;;;;;;;18.61;100.00;100120.56;2086963;28;20215;-63
2022/09/17 04:03:44;;;;;;;8.77;3.47;;;;;;;18.59;100.00;100117.50;2088160;28;20216;-63
2022/09/17 04:04:45;;;;;;;8.13;3.00;;;;;;;18.58;100.00;100115.97;2088041;28;20650;-63
2022/09/17 04:05:46;;;;;;;10.43;3.03;;;;;;;18.56;100.00;100122.06;2087616;28;21729;-63
2022/09/17 04:06:46;;;;;;;6.73;3.10;;;;;;;18.51;100.00;100117.19;2087043;28;20858;-63
2022/09/17 04:07:46;;;;;;;6.97;3.43;;;;;;;18.54;100.00;100126.63;2087154;28;20254;-63
2022/09/17 04:08:47;;;;;;;9.27;3.13;;;;;;;18.28;100.00;100099.38;2086305;28;20196;-63
2022/09/17 04:09:47;;;;;;;7.27;3.43;;;;;;;18.47;100.00;100133.47;2085948;28;20191;-63
2022/09/17 04:10:48;;;;;;;7.73;3.10;;;;;;;18.19;100.00;100091.13;2086618;28;21363;-63
2022/09/17 04:11:48;;;;;;;8.13;3.03;;;;;;;18.50;100.00;100126.09;2087577;28;20180;-63
2022/09/17 04:12:49;;;;;;;8.47;3.10;;;;;;;18.51;100.00;100131.22;2088000;28;20184;-63
2022/09/17 04:13:49;;;;;;;7.50;2.63;;;;;;;18.54;100.00;100135.84;2087031;28;20211;-63
2022/09/17 04:14:50;;;;;;;9.80;3.60;;;;;;;18.54;100.00;100121.81;2086370;28;20575;-63
2022/09/17 04:15:50;;;;;;;6.23;2.83;;;;;;;18.58;100.00;100124.38;2086005;28;20195;-63
2022/09/17 04:16:51;;;;;;;9.80;3.33;;;;;;;18.58;100.00;100115.97;2085698;28;20563;-63
2022/09/17 04:17:56;;;;;;;6.63;3.03;;;;;;;18.10;100.00;100056.91;2087051;28;20210;-63
2022/09/17 04:18:57;;;;;;;9.20;3.00;;;;;;;18.02;100.00;100038.97;2087753;28;20679;-63
2022/09/17 04:19:57;;;;;;;7.63;2.80;;;;;;;18.54;100.00;100124.63;2086269;28;20418;-63
2022/09/17 04:20:57;;;;;;;10.37;3.70;;;;;;;18.55;100.00;100130.97;2087708;28;20219;-63
2022/09/17 04:21:59;;;;;;;8.77;2.70;;;;;;;18.18;100.00;100075.56;2087888;28;20215;-63
2022/09/17 04:23:00;;;;;;;10.37;3.50;;;;;;;18.59;100.00;100143.53;2086160;28;20240;-63
2022/09/17 04:24:00;;;;;;;7.83;3.10;;;;;;;17.91;100.00;100021.31;2086371;28;20454;-63
2022/09/17 04:25:01;;;;;;;6.10;3.00;;;;;;;18.60;100.00;100130.25;2087302;28;20973;-63
2022/09/17 04:26:01;;;;;;;5.07;2.90;;;;;;;18.65;100.00;100118.31;2087138;28;20180;-63
2022/09/17 04:27:02;;;;;;;13.90;3.27;;;;;;;18.64;100.00;100131.59;2086447;28;20753;-63
2022/09/17 04:28:02;;;;;;;6.63;3.00;;;;;;;18.53;100.00;100111.09;2087051;28;20568;-63
2022/09/17 04:29:03;;;;;;;9.80;3.80;;;;;;;18.57;100.00;100112.38;2087111;28;20267;-63
2022/09/17 04:30:04;;;;;;;6.60;2.80;;;;;;;18.63;100.00;100130.03;2086976;28;20274;-63
2022/09/17 04:31:04;;;;;;;6.97;2.80;;;;;;;18.65;100.00;100126.72;2087241;28;20184;-63
2022/09/17 04:32:05;;;;;;;5.57;3.00;;;;;;;18.61;100.00;100120.56;2086345;28;20535;-63
2022/09/17 04:33:05;;;;;;;7.87;3.00;;;;;;;18.62;100.00;100120.06;2087405;28;20192;-63
2022/09/17 04:34:06;;;;;;;10.23;3.13;;;;;;;18.25;100.00;100071.56;2087175;28;20196;-63
2022/09/17 04:35:07;;;;;;;5.40;2.80;;;;;;;18.61;100.00;100129.75;2086869;28;20196;-63
2022/09/17 04:36:07;;;;;;;6.20;2.97;;;;;;;18.69;100.00;100142.09;2087067;28;20180;-63
2022/09/17 04:37:08;;;;;;;6.73;2.80;;;;;;;18.66;100.00;100133.88;2086566;28;20263;-63
2022/09/17 04:38:09;;;;;;;6.27;3.20;;;;;;;18.76;100.00;100138.03;2087965;28;20649;-63
2022/09/17 04:39:09;;;;;;;10.27;3.53;;;;;;;18.67;100.00;100138.22;2086173;28;20248;-63
2022/09/17 04:40:10;;;;;;;9.13;3.40;;;;;;;18.62;100.00;100134.09;2086719;28;20223;-63
2022/09/17 04:41:10;;;;;;;5.97;2.90;;;;;;;18.61;100.00;100132.56;2086892;28;20199;-63
2022/09/17 04:42:10;;;;;;;5.23;2.90;;;;;;;18.63;100.00;100146.09;2086753;28;20279;-63
2022/09/17 04:43:11;;;;;;;12.13;3.27;;;;;;;18.66;100.00;100145.09;2086482;28;20713;-63
2022/09/17 04:44:11;;;;;;;10.13;3.43;;;;;;;18.68;100.00;100148.19;2086396;28;20188;-63
2022/09/17 04:45:12;;;;;;;7.13;2.90;;;;;;;18.70;100.00;100137.22;2086334;28;20191;-63
2022/09/17 04:46:13;;;;;;;6.87;3.23;;;;;;;18.64;100.00;100130.81;2087060;28;20191;-63
2022/09/17 04:47:13;;;;;;;6.03;2.93;;;;;;;18.54;100.00;100135.84;2086505;28;20196;-63
2022/09/17 04:48:14;;;;;;;4.30;2.60;;;;;;;18.44;100.00;100136.50;2087764;28;20731;-63
2022/09/17 04:49:14;;;;;;;9.17;3.40;;;;;;;18.53;100.00;100148.31;2088405;28;20414;-63
2022/09/17 04:50:17;;;;;;;7.03;3.43;;;;;;;18.55;100.00;100162.63;2088564;28;20623;-63
2022/09/17 04:51:17;;;;;;;6.73;3.40;;;;;;;18.57;100.00;100176.16;2088548;28;20747;-63
2022/09/17 04:52:18;;;;;;;7.70;3.00;;;;;;;18.53;100.00;100181.97;2087591;28;20934;-63
2022/09/17 04:53:18;;;;;;;6.73;3.30;;;;;;;18.12;100.00;100116.03;2088700;28;20184;-63
2022/09/17 04:54:19;;;;;;;8.00;3.20;;;;;;;18.44;100.00;100172.97;2089383;28;20175;-63
2022/09/17 04:55:19;;;;;;;8.83;3.43;;;;;;;18.47;100.00;100186.78;2089101;28;20215;-63
2022/09/17 04:56:20;;;;;;;8.63;3.50;;;;;;;18.42;100.00;100190.28;2088587;28;20188;-63
2022/09/17 04:57:22;;;;;;;7.80;3.60;;;;;;;18.34;100.00;100197.63;2087837;28;20312;-63
2022/09/17 04:58:22;;;;;;;6.37;3.57;;;;;;;18.32;100.00;100204.97;2088633;28;20223;-63
2022/09/17 04:59:23;;;;;;;6.77;3.60;;;;;;;18.23;100.00;100197.50;2088576;28;20449;-63
2022/09/17 05:00:24;;;;;;;7.07;3.47;;;;;;;18.14;100.00;100195.59;2086208;28;20199;-63
2022/09/17 05:01:24;;;;;;;9.20;4.00;;;;;;;18.11;100.00;100195.06;2088739;28;20238;-62
2022/09/17 05:02:25;;;;;;;6.50;3.40;;;;;;;18.07;100.00;100184.06;2088186;28;20437;-62